Main page
METAR-TAF:

METAR-TAF

Airports :

Oil platform

Sleipner, Norway

latitude: 58-22-00N, longitude: 001-54-25E, elevation: 50 m

Current weather observation

The report was made 12 minutes ago, at 06:50 UTC
Wind 38 kt from the Northwest
Temperature 9°C
Humidity 87%
Pressure 981 hPa
Visibility: 3100 m
rain

METAR: ENSL 050650Z AUTO 32038KT 3100NDV RA OVC008/// 09/07 Q0981 W09/S4

Time: 09:02 (07:02 UTC)


TAF: missing

Weather observations and forecasts of more than 4000 airports (METAR and TAF reports).

The available stations are represented by yellow and red dots on the map.

Hover mouse over dot to see the name of the station.

Then click to see weather observations and forecasts.

To change the map : click on the green buttons with a black cross to zoom in, on the green button with a dash to zoom out, or on the green arrows for adjacent maps.


METAR-TAF: